Time;durP1;ratioP1;P1;durP2;ratioP2;P2;SDS_P1;SDS_P2;PMS_P1;PMS_P2;Temp;Humidity;BMP_temperature;BMP_pressure;BME280_temperature;BME280_humidity;BME280_pressure;Samples;Min_cycle;Max_cycle;Signal;HPM_P1;HPM_P2
2022/11/10 00:03:57;;;;;;;15.68;11.48;;;15.20;86.20;;;;;;10862717;32;20042;-78
2022/11/10 00:10:18;;;;;;;17.48;13.55;;;15.20;86.20;;;;;;10862122;32;20023;-78
2022/11/10 00:23:17;;;;;;;17.17;12.20;;;15.20;86.40;;;;;;10864640;26;20040;-78
2022/11/10 00:29:37;;;;;;;15.35;13.25;;;15.20;86.30;;;;;;10857677;32;20020;-78
2022/11/10 00:35:59;;;;;;;15.82;13.62;;;15.20;86.30;;;;;;10861528;32;20047;-78
2022/11/10 00:42:19;;;;;;;20.58;15.80;;;15.30;86.30;;;;;;10861399;32;20008;-78
2022/11/10 00:48:39;;;;;;;14.82;12.60;;;15.30;86.20;;;;;;10849965;32;20020;-78
2022/11/10 00:54:59;;;;;;;13.75;10.13;;;15.20;86.20;;;;;;10862660;32;20050;-78
2022/11/10 01:01:34;;;;;;;17.85;13.40;;;15.10;86.20;;;;;;10867779;32;20012;-78
2022/11/10 01:08:01;;;;;;;19.00;11.98;;;15.00;86.40;;;;;;10851973;32;20333;-78
2022/11/10 01:14:21;;;;;;;17.08;14.15;;;15.00;86.50;;;;;;10867315;32;20011;-78
2022/11/10 01:20:42;;;;;;;20.67;16.60;;;15.10;86.60;;;;;;10862820;32;20051;-78
2022/11/10 01:27:02;;;;;;;17.83;12.88;;;15.20;86.60;;;;;;10866783;32;20384;-78
2022/11/10 01:33:22;;;;;;;18.50;13.77;;;15.20;86.60;;;;;;10866645;32;20043;-78
2022/11/10 01:39:42;;;;;;;16.25;11.60;;;15.20;86.40;;;;;;10862220;32;20054;-78
2022/11/10 01:46:07;;;;;;;17.95;14.00;;;15.20;86.50;;;;;;10856131;32;20300;-78
2022/11/10 01:52:27;;;;;;;15.68;13.77;;;15.20;86.70;;;;;;10866160;32;20050;-78
2022/11/10 01:59:01;;;;;;;14.25;12.75;;;15.20;86.70;;;;;;10865891;32;20384;-78
2022/11/10 02:05:23;;;;;;;13.60;10.00;;;15.20;86.70;;;;;;10865254;32;20344;-77
2022/11/10 02:11:44;;;;;;;19.20;13.43;;;15.20;86.70;;;;;;10862129;32;20028;-77
2022/11/10 02:18:04;;;;;;;24.12;20.35;;;15.10;86.60;;;;;;10854114;32;20082;-77
2022/11/10 02:24:24;;;;;;;19.60;17.30;;;15.00;86.80;;;;;;10865050;32;20078;-77
2022/11/10 02:30:44;;;;;;;21.77;17.10;;;15.10;86.80;;;;;;10849607;32;20055;-78
2022/11/10 02:37:04;;;;;;;22.50;16.00;;;15.10;86.70;;;;;;10864793;32;20054;-77
2022/11/10 02:43:24;;;;;;;18.33;15.02;;;15.20;86.50;;;;;;10864681;32;20443;-77
2022/11/10 02:49:45;;;;;;;19.95;15.05;;;15.10;86.60;;;;;;10862075;32;20055;-77
2022/11/10 02:56:06;;;;;;;24.02;19.48;;;15.10;86.60;;;;;;10864421;32;20020;-79
2022/11/10 03:02:26;;;;;;;22.23;17.55;;;15.00;86.60;;;;;;10852833;32;20020;-78
2022/11/10 03:08:48;;;;;;;18.75;15.05;;;15.10;86.70;;;;;;10863769;32;20031;-78
2022/11/10 03:15:09;;;;;;;15.50;10.07;;;15.00;86.60;;;;;;10863841;32;20020;-79
2022/11/10 03:21:32;;;;;;;17.40;14.82;;;15.00;86.60;;;;;;10863569;32;20293;-79
2022/11/10 03:27:53;;;;;;;18.90;13.90;;;15.00;86.40;;;;;;10863300;32;20016;-80
2022/11/10 03:34:13;;;;;;;22.05;17.52;;;14.90;86.60;;;;;;10850554;32;20020;-80
2022/11/10 03:40:33;;;;;;;20.37;11.50;;;14.90;86.70;;;;;;10859007;32;20046;-80
2022/11/10 03:46:54;;;;;;;19.25;15.07;;;15.00;86.50;;;;;;10862816;32;20434;-80
2022/11/10 03:53:14;;;;;;;15.70;12.52;;;15.00;86.50;;;;;;10862757;32;20059;-80
2022/11/10 03:59:49;;;;;;;15.75;12.27;;;14.90;86.50;;;;;;10862681;32;20063;-80
2022/11/10 04:19:28;;;;;;;18.33;15.52;;;15.00;86.70;;;;;;10857894;32;20019;-79
2022/11/10 04:26:27;;;;;;;15.75;11.93;;;15.00;86.70;;;;;;10850972;32;20050;-79
2022/11/10 04:32:28;;;;;;;17.10;11.18;;;15.00;86.90;;;;;;10857815;32;20024;-79
2022/11/10 04:38:49;;;;;;;18.27;14.93;;;15.00;86.90;;;;;;10860258;32;20039;-79
2022/11/10 04:45:09;;;;;;;18.90;12.57;;;15.00;86.90;;;;;;10858421;32;20115;-79
2022/11/10 04:51:36;;;;;;;15.00;12.00;;;15.00;86.90;;;;;;10861179;32;20046;-79
2022/11/10 04:58:00;;;;;;;12.90;9.93;;;15.00;86.90;;;;;;10860918;32;20015;-80
2022/11/10 05:04:39;;;;;;;20.83;16.52;;;15.00;86.90;;;;;;10860916;32;20376;-79
2022/11/10 05:10:59;;;;;;;14.63;10.50;;;14.90;87.00;;;;;;10860652;32;20050;-80
2022/11/10 05:17:19;;;;;;;18.55;10.57;;;14.90;87.00;;;;;;10856447;32;20058;-79
2022/11/10 05:23:40;;;;;;;20.42;16.08;;;14.90;86.90;;;;;;10860288;32;20043;-80
2022/11/10 05:30:00;;;;;;;18.20;13.82;;;14.90;87.00;;;;;;10856204;32;20414;-79
2022/11/10 05:36:21;;;;;;;20.15;13.73;;;14.90;87.00;;;;;;10860152;32;20042;-79
2022/11/10 05:42:46;;;;;;;18.75;16.62;;;14.90;86.80;;;;;;10862296;32;20019;-79
2022/11/10 05:49:07;;;;;;;22.08;16.12;;;15.00;86.90;;;;;;10866145;32;20020;-79
2022/11/10 05:55:28;;;;;;;17.60;13.62;;;15.00;86.90;;;;;;10865944;32;20019;-79
2022/11/10 06:01:49;;;;;;;19.00;15.18;;;15.10;86.80;;;;;;10861815;32;20424;-80
2022/11/10 06:08:10;;;;;;;23.50;18.05;;;15.20;86.50;;;;;;10865628;32;20070;-80
2022/11/10 06:14:30;;;;;;;24.20;18.25;;;15.30;86.40;;;;;;10861614;32;20016;-79
2022/11/10 06:20:50;;;;;;;27.67;21.05;;;15.30;86.10;;;;;;10861128;32;20049;-79
2022/11/10 06:27:20;;;;;;;;;;;15.30;86.00;;;;;;10865393;32;20015;-79
2022/11/10 06:33:41;;;;;;;19.00;11.75;;;15.30;86.10;;;;;;10853743;32;19953;-78
2022/11/10 06:40:02;;;;;;;21.75;14.77;;;15.30;86.20;;;;;;10864542;32;20388;-78
2022/11/10 06:46:23;;;;;;;16.67;12.25;;;15.30;86.20;;;;;;10864418;32;20001;-78
2022/11/10 06:52:43;;;;;;;20.58;14.63;;;15.40;86.40;;;;;;10852830;32;20023;-79
2022/11/10 06:59:04;;;;;;;19.42;16.62;;;15.50;86.50;;;;;;10859520;32;20043;-79
2022/11/10 07:05:24;;;;;;;18.02;12.37;;;15.40;86.40;;;;;;10852558;32;20020;-79
2022/11/10 07:11:45;;;;;;;17.23;13.32;;;15.50;86.40;;;;;;10859911;32;20051;-79
2022/11/10 07:18:05;;;;;;;15.93;11.85;;;15.60;86.30;;;;;;10858979;32;20073;-79
2022/11/10 07:24:25;;;;;;;16.85;14.90;;;15.70;86.10;;;;;;10848845;32;20051;-79
2022/11/10 07:30:45;;;;;;;18.90;15.35;;;15.80;86.00;;;;;;10861931;32;20055;-79
2022/11/10 07:37:06;;;;;;;16.55;13.25;;;15.90;85.90;;;;;;10862084;32;20048;-79
2022/11/10 07:43:26;;;;;;;17.12;13.30;;;15.70;86.00;;;;;;10859567;32;20077;-79
2022/11/10 07:49:46;;;;;;;20.83;13.35;;;15.70;86.20;;;;;;10858704;32;20051;-78
2022/11/10 07:56:16;;;;;;;17.60;13.32;;;15.90;86.20;;;;;;10862842;32;20047;-78
2022/11/10 08:02:37;;;;;;;15.82;13.95;;;16.00;86.00;;;;;;10862388;32;20066;-78
2022/11/10 08:08:57;;;;;;;15.50;11.75;;;16.10;86.10;;;;;;10849790;32;20054;-78
2022/11/10 08:15:17;;;;;;;17.00;12.40;;;16.20;86.30;;;;;;10823207;33;20048;-78
2022/11/10 08:21:37;;;;;;;16.62;11.10;;;16.20;86.40;;;;;;10472175;27;12825791;-78
2022/11/10 08:28:12;;;;;;;17.40;13.60;;;16.20;86.60;;;;;;10939271;32;20018;-78
2022/11/10 08:34:32;;;;;;;14.43;11.40;;;16.30;86.50;;;;;;10939015;32;20053;-78
2022/11/10 08:40:56;;;;;;;11.40;9.15;;;16.30;86.40;;;;;;10925687;32;20414;-78
2022/11/10 08:47:16;;;;;;;12.82;8.95;;;16.30;86.50;;;;;;10899792;32;20028;-78
2022/11/10 08:53:37;;;;;;;12.02;10.25;;;16.30;86.40;;;;;;10786744;33;20021;-78
2022/11/10 08:59:58;;;;;;;15.00;11.50;;;16.30;86.80;;;;;;10783254;33;20028;-77
2022/11/10 09:06:18;;;;;;;16.65;11.82;;;16.40;86.70;;;;;;10787099;33;20047;-77
2022/11/10 09:12:40;;;;;;;15.60;10.75;;;16.30;86.70;;;;;;10786149;33;20028;-77
2022/11/10 09:19:00;;;;;;;10.93;9.05;;;16.30;86.70;;;;;;10786738;33;20212;-77
2022/11/10 09:25:39;;;;;;;15.50;10.90;;;16.30;86.80;;;;;;10788093;33;20055;-77
2022/11/10 09:31:59;;;;;;;12.98;9.32;;;16.40;86.80;;;;;;10792935;33;20413;-78
2022/11/10 09:38:21;;;;;;;16.00;9.95;;;16.40;86.80;;;;;;10792953;33;20012;-77
2022/11/10 09:44:52;;;;;;;10.52;8.50;;;16.40;87.20;;;;;;10792497;33;20031;-77
2022/11/10 09:51:30;;;;;;;12.27;9.02;;;16.50;87.30;;;;;;10788398;33;20020;-78
2022/11/10 09:57:58;;;;;;;17.05;10.27;;;16.40;87.30;;;;;;10794001;33;20047;-77
2022/11/10 10:04:28;;;;;;;15.98;12.65;;;16.50;87.30;;;;;;10788180;33;20059;-78
2022/11/10 10:11:24;;;;;;;14.50;9.23;;;16.50;87.40;;;;;;10788524;33;20016;-77
2022/11/10 10:18:15;;;;;;;12.75;9.30;;;16.40;87.40;;;;;;10791129;32;20029;-77
2022/11/10 10:24:37;;;;;;;9.70;7.07;;;16.30;87.40;;;;;;10787924;33;20317;-77
2022/11/10 10:31:20;;;;;;;13.43;9.30;;;16.40;87.50;;;;;;10790794;33;20320;-77
2022/11/10 10:37:46;;;;;;;7.80;6.03;;;16.50;87.20;;;;;;10830479;32;20135;-77
2022/11/10 10:44:16;;;;;;;10.85;8.07;;;16.50;87.10;;;;;;10827352;32;20382;-77
2022/11/10 10:50:41;;;;;;;11.88;9.35;;;16.40;87.10;;;;;;10825025;33;20046;-77
2022/11/10 10:57:24;;;;;;;15.30;11.48;;;16.20;87.30;;;;;;10826458;32;20321;-76
2022/11/10 11:03:46;;;;;;;19.95;9.80;;;16.00;87.30;;;;;;10828601;32;20063;-77
2022/11/10 11:10:29;;;;;;;15.05;11.50;;;15.90;87.60;;;;;;10821289;32;20051;-77
2022/11/10 11:16:54;;;;;;;14.55;10.18;;;16.00;87.40;;;;;;10785919;33;20029;-78
2022/11/10 11:23:53;;;;;;;13.95;10.45;;;16.30;87.40;;;;;;10789681;33;20017;-77
2022/11/10 11:30:18;;;;;;;7.95;5.68;;;16.40;87.50;;;;;;10818095;32;20028;-76
2022/11/10 11:37:06;;;;;;;12.02;10.15;;;16.50;87.20;;;;;;10827724;32;20092;-77
2022/11/10 11:43:48;;;;;;;12.13;7.53;;;16.50;87.50;;;;;;10826723;32;20031;-77
2022/11/10 11:50:23;;;;;;;11.75;9.25;;;16.60;87.30;;;;;;10824278;32;20028;-75
2022/11/10 11:56:47;;;;;;;12.63;8.68;;;16.70;87.20;;;;;;10826681;32;20365;-76
2022/11/10 12:03:54;;;;;;;9.07;7.20;;;16.70;87.00;;;;;;10818442;32;20060;-76
2022/11/10 12:10:33;;;;;;;13.32;10.23;;;16.60;87.40;;;;;;10768492;33;20051;-76
2022/11/10 12:17:42;;;;;;;13.55;10.35;;;16.70;87.50;;;;;;10773708;33;20435;-77
2022/11/10 12:24:23;;;;;;;11.60;7.93;;;16.80;87.40;;;;;;10860809;32;20027;-77
2022/11/10 12:30:46;;;;;;;10.77;7.50;;;16.90;87.40;;;;;;10862961;32;20062;-77
2022/11/10 12:37:13;;;;;;;7.35;5.82;;;17.00;87.40;;;;;;10862627;32;20177;-77
2022/11/10 12:44:15;;;;;;;6.80;5.03;;;16.90;87.60;;;;;;10858604;32;20396;-77
2022/11/10 12:50:49;;;;;;;7.90;5.97;;;17.00;87.50;;;;;;10853687;32;20286;-77
2022/11/10 12:57:22;;;;;;;8.73;5.20;;;16.90;87.70;;;;;;10844847;32;20298;-76
2022/11/10 13:03:58;;;;;;;7.05;5.18;;;17.00;87.80;;;;;;10757034;33;20020;-77
2022/11/10 13:10:23;;;;;;;6.72;5.47;;;17.10;87.70;;;;;;10777431;32;20024;-77
2022/11/10 13:16:43;;;;;;;11.60;7.20;;;17.10;87.90;;;;;;10792626;33;20021;-77
2022/11/10 13:23:23;;;;;;;7.93;5.87;;;17.30;87.80;;;;;;10793186;33;20431;-77
2022/11/10 13:29:46;;;;;;;5.40;3.30;;;17.30;87.60;;;;;;10794118;33;20300;-76
2022/11/10 13:36:07;;;;;;;4.60;3.15;;;17.20;87.90;;;;;;10792135;33;20028;-77
2022/11/10 13:42:28;;;;;;;6.93;3.62;;;17.20;88.10;;;;;;10792758;33;20024;-76
2022/11/10 13:49:19;;;;;;;5.62;4.05;;;17.30;88.00;;;;;;10792335;33;20036;-76
2022/11/10 13:55:52;;;;;;;3.92;3.03;;;17.30;87.60;;;;;;10792325;33;20020;-76
2022/11/10 14:02:37;;;;;;;5.37;3.03;;;17.00;87.70;;;;;;10791665;33;20325;-76
2022/11/10 14:09:32;;;;;;;5.03;2.80;;;16.90;87.70;;;;;;10792713;33;20151;-76
2022/11/10 14:16:52;;;;;;;2.33;1.85;;;16.70;87.70;;;;;;10791037;33;20423;-76
2022/11/10 14:23:27;;;;;;;3.33;2.47;;;16.70;87.80;;;;;;10778967;33;20033;-76
2022/11/10 14:29:47;;;;;;;3.30;2.20;;;16.70;88.00;;;;;;10788500;33;20407;-77
2022/11/10 14:36:11;;;;;;;2.30;1.83;;;16.70;88.10;;;;;;10791151;33;20313;-77
2022/11/10 14:42:33;;;;;;;2.80;1.83;;;16.60;87.50;;;;;;10790818;33;20012;-77
2022/11/10 14:49:25;;;;;;;2.47;1.55;;;16.60;87.70;;;;;;10788982;33;20039;-76
2022/11/10 14:55:51;;;;;;;2.12;1.67;;;16.70;87.80;;;;;;10790585;33;20016;-76
2022/11/10 15:02:26;;;;;;;1.70;1.43;;;16.80;87.70;;;;;;10766838;33;20047;-76
2022/11/10 15:08:47;;;;;;;3.05;2.20;;;16.90;88.10;;;;;;10772106;33;20060;-77
2022/11/10 15:15:18;;;;;;;2.45;2.05;;;16.80;87.60;;;;;;10783830;33;20066;-75
2022/11/10 15:21:38;;;;;;;4.43;2.17;;;16.70;87.90;;;;;;10755849;33;20048;-75
2022/11/10 15:28:05;;;;;;;2.50;1.70;;;16.70;87.80;;;;;;10749821;33;20025;-75
2022/11/10 15:34:40;;;;;;;2.37;1.40;;;16.50;88.10;;;;;;10753364;33;20389;-75
2022/11/10 15:41:23;;;;;;;2.47;1.75;;;16.50;88.40;;;;;;10760871;33;20020;-74
2022/11/10 15:47:44;;;;;;;2.47;1.52;;;16.60;88.40;;;;;;10763314;33;20397;-74
2022/11/10 15:54:09;;;;;;;1.52;1.02;;;16.70;88.40;;;;;;10751481;33;20025;-74
2022/11/10 16:00:29;;;;;;;1.60;1.35;;;16.70;88.20;;;;;;10783513;33;20017;-74
2022/11/10 16:06:50;;;;;;;2.20;1.92;;;16.50;87.90;;;;;;10788575;33;20020;-74
2022/11/10 16:13:13;;;;;;;3.85;2.28;;;16.40;87.80;;;;;;10776501;33;20025;-74
2022/11/10 16:19:33;;;;;;;8.50;5.43;;;16.40;87.60;;;;;;10765342;33;20320;-75
2022/11/10 16:25:56;;;;;;;13.13;5.97;;;16.30;87.50;;;;;;10934963;32;20030;-75
2022/11/10 16:32:16;;;;;;;11.68;6.82;;;16.20;87.50;;;;;;10940694;32;20072;-75
2022/11/10 16:38:37;;;;;;;7.60;5.57;;;16.20;87.60;;;;;;10940134;32;20054;-75
2022/11/10 16:44:58;;;;;;;8.93;6.00;;;16.20;87.40;;;;;;10941115;32;20430;-75
2022/11/10 16:51:24;;;;;;;9.57;5.47;;;16.20;87.50;;;;;;10937549;32;20015;-75
2022/11/10 16:58:00;;;;;;;9.93;6.82;;;16.20;87.50;;;;;;10929621;32;20441;-75
2022/11/10 17:04:39;;;;;;;9.90;7.07;;;16.20;87.40;;;;;;10937477;32;20384;-75
2022/11/10 17:11:00;;;;;;;9.05;5.95;;;16.20;87.40;;;;;;10940100;32;20019;-75
2022/11/10 17:17:20;;;;;;;8.45;5.57;;;16.10;87.40;;;;;;10936490;32;20042;-75
2022/11/10 17:23:40;;;;;;;8.65;5.18;;;16.00;87.50;;;;;;10814280;32;20043;-75
2022/11/10 17:30:00;;;;;;;6.62;4.35;;;16.00;87.40;;;;;;10823003;33;20023;-75
2022/11/10 17:36:22;;;;;;;6.37;5.05;;;16.00;87.30;;;;;;10823838;32;20386;-75
2022/11/10 17:42:42;;;;;;;6.62;5.32;;;16.00;87.30;;;;;;10825379;33;20385;-75
2022/11/10 17:49:08;;;;;;;7.55;5.78;;;16.00;87.10;;;;;;10787107;33;20028;-75
2022/11/10 17:55:29;;;;;;;5.72;4.70;;;16.00;87.00;;;;;;10792307;33;20020;-75
2022/11/10 18:01:49;;;;;;;8.32;7.32;;;15.90;86.90;;;;;;10792179;33;20066;-75
2022/11/10 18:08:11;;;;;;;11.02;9.43;;;15.90;86.70;;;;;;10791948;33;20013;-74
2022/11/10 18:14:33;;;;;;;12.02;10.57;;;15.90;86.70;;;;;;10791541;33;20012;-75
2022/11/10 18:20:53;;;;;;;10.68;9.13;;;15.80;86.60;;;;;;10781475;33;20008;-74
2022/11/10 18:27:15;;;;;;;9.95;8.02;;;15.80;86.60;;;;;;10761813;33;20020;-74
2022/11/10 18:33:36;;;;;;;9.73;8.75;;;15.70;86.70;;;;;;10791180;33;20020;-75
2022/11/10 18:39:56;;;;;;;13.93;10.95;;;15.70;86.50;;;;;;10791116;33;20008;-75
2022/11/10 18:46:16;;;;;;;9.60;8.38;;;15.70;86.40;;;;;;10790839;33;20008;-75
2022/11/10 18:52:36;;;;;;;11.12;9.18;;;15.70;86.30;;;;;;10779216;33;20052;-75
2022/11/10 18:58:57;;;;;;;10.25;7.80;;;15.70;86.20;;;;;;10790565;33;20359;-75
2022/11/10 19:05:17;;;;;;;9.10;8.02;;;15.60;86.10;;;;;;10790301;33;20082;-75
2022/11/10 19:11:38;;;;;;;11.63;9.88;;;15.60;86.00;;;;;;10779213;33;20012;-75
2022/11/10 19:18:08;;;;;;;11.23;9.68;;;15.50;85.90;;;;;;10789829;33;20044;-75
2022/11/10 19:24:28;;;;;;;8.02;6.47;;;15.50;85.90;;;;;;10789751;33;20051;-75
2022/11/10 19:31:00;;;;;;;8.15;7.05;;;15.40;85.80;;;;;;10790150;33;20043;-75
2022/11/10 19:37:19;;;;;;;9.38;7.60;;;15.30;85.70;;;;;;10775071;33;20016;-75
2022/11/10 19:44:17;;;;;;;8.30;6.65;;;15.30;85.70;;;;;;10771798;33;20309;-75
2022/11/10 19:50:37;;;;;;;9.10;7.05;;;15.30;85.70;;;;;;10760082;33;20071;-75
2022/11/10 19:56:57;;;;;;;10.98;9.65;;;15.20;85.60;;;;;;10787038;33;20047;-75
2022/11/10 20:03:19;;;;;;;9.95;7.87;;;15.20;85.60;;;;;;10784250;33;20016;-75
2022/11/10 20:09:39;;;;;;;10.50;7.18;;;15.10;85.40;;;;;;10788393;33;20021;-75
2022/11/10 20:16:49;;;;;;;13.55;9.82;;;15.00;85.40;;;;;;10783921;33;20016;-75
2022/11/10 20:23:10;;;;;;;11.50;6.75;;;14.90;85.30;;;;;;10825465;32;20063;-75
2022/11/10 20:29:31;;;;;;;9.38;6.25;;;15.00;85.20;;;;;;10825062;32;20405;-75
2022/11/10 20:35:51;;;;;;;8.52;6.72;;;14.90;85.10;;;;;;10826023;32;20019;-76
2022/11/10 20:42:12;;;;;;;5.93;4.93;;;14.90;85.10;;;;;;10826085;32;20047;-75
2022/11/10 20:48:35;;;;;;;11.45;7.37;;;14.80;85.10;;;;;;10825861;32;20054;-76
2022/11/10 20:54:55;;;;;;;7.35;5.53;;;14.70;85.20;;;;;;10816161;32;20024;-75
2022/11/10 21:01:15;;;;;;;7.50;5.47;;;14.70;85.10;;;;;;10787353;33;20027;-76
2022/11/10 21:07:35;;;;;;;8.50;5.75;;;14.70;85.10;;;;;;10785257;33;20013;-76
2022/11/10 21:13:57;;;;;;;9.43;6.45;;;14.60;85.30;;;;;;10790540;33;20059;-76
2022/11/10 21:20:25;;;;;;;8.32;6.12;;;14.70;85.20;;;;;;10792844;32;20047;-76
2022/11/10 21:26:47;;;;;;;7.47;6.10;;;14.70;85.20;;;;;;10792820;33;20020;-76
2022/11/10 21:33:08;;;;;;;8.45;7.10;;;14.70;85.10;;;;;;10781967;33;20017;-76
2022/11/10 21:39:28;;;;;;;8.40;6.72;;;14.70;85.00;;;;;;10792864;33;20035;-75
2022/11/10 21:45:56;;;;;;;7.10;6.15;;;14.60;85.10;;;;;;10792586;33;20031;-76
2022/11/10 21:52:16;;;;;;;9.45;7.53;;;14.70;85.00;;;;;;10792327;33;20017;-76
2022/11/10 21:58:37;;;;;;;7.90;6.45;;;14.60;85.00;;;;;;10792346;33;20337;-75
2022/11/10 22:04:57;;;;;;;7.03;5.20;;;14.60;85.00;;;;;;10789539;33;20086;-76
2022/11/10 22:24:39;;;;;;;11.05;8.65;;;14.50;85.00;;;;;;10790000;33;20012;-76
2022/11/10 22:31:05;;;;;;;12.00;8.93;;;14.50;84.90;;;;;;10791414;33;20017;-76
2022/11/10 22:37:31;;;;;;;10.15;7.00;;;14.50;85.00;;;;;;10791364;33;20047;-76
2022/11/10 22:44:04;;;;;;;7.35;6.35;;;14.40;85.00;;;;;;10791117;33;20020;-76
2022/11/10 22:50:25;;;;;;;9.50;7.28;;;14.30;85.10;;;;;;10790815;33;20009;-76
2022/11/10 22:56:47;;;;;;;8.18;6.60;;;14.30;85.00;;;;;;10790797;33;20012;-76
2022/11/10 23:03:07;;;;;;;10.77;7.18;;;14.20;85.10;;;;;;10790482;33;20148;-76
2022/11/10 23:09:35;;;;;;;8.93;7.30;;;14.20;85.30;;;;;;10790355;33;20043;-76
2022/11/10 23:16:00;;;;;;;8.50;7.37;;;14.30;85.10;;;;;;10790258;33;20038;-76
2022/11/10 23:22:21;;;;;;;8.38;6.85;;;14.20;85.10;;;;;;10789897;33;20020;-76
2022/11/10 23:28:42;;;;;;;9.15;7.50;;;14.00;85.40;;;;;;10789785;33;20032;-76
2022/11/10 23:35:02;;;;;;;7.82;6.28;;;14.10;85.40;;;;;;10790005;33;20028;-76
2022/11/10 23:41:32;;;;;;;9.13;6.25;;;14.10;85.30;;;;;;10789447;33;20008;-76
2022/11/10 23:48:08;;;;;;;9.23;7.12;;;14.10;85.20;;;;;;10789663;33;20059;-76
2022/11/10 23:54:28;;;;;;;7.05;5.75;;;14.10;85.30;;;;;;10789079;33;20021;-76
